TUN weather

Tunis Carthage International Airport
Tunis, Tunis Governorate, Tunisia

Public forecast

Using degrees Celsius for public forecast. Weather courtesy of forecast.io.

METAR (pilot weather report)

Retrieved 2019/02/18 00:00 UTC (7 minutes ago):

DTTA 180000Z 16005KT 9999 FEW033 09/05 Q1027 NOSIG

TAF (pilot weather forecast)

Forecast is more than 12 hours old.

Retrieved 2019/02/17 00:40 UTC (23 hours ago):

TAF DTTA 172300Z 1800/1824 17010KT 9999 FEW033